createdAt,value
2023-05-17T00:02:10.886Z,9.60
2023-05-17T00:04:38.026Z,8.85
2023-05-17T00:07:07.368Z,8.40
2023-05-17T00:09:34.437Z,8.55
2023-05-17T00:12:01.519Z,8.20
2023-05-17T00:14:31.844Z,8.68
2023-05-17T00:16:59.250Z,9.40
2023-05-17T00:19:30.059Z,8.50
2023-05-17T00:22:00.516Z,8.85
2023-05-17T00:24:27.598Z,8.55
2023-05-17T00:26:54.739Z,8.90
2023-05-17T00:29:21.687Z,9.02
2023-05-17T00:31:48.716Z,8.20
2023-05-17T00:34:15.979Z,8.93
2023-05-17T00:36:42.980Z,8.10
2023-05-17T00:39:10.315Z,8.20
2023-05-17T00:41:37.688Z,8.25
2023-05-17T00:44:04.887Z,9.32
2023-05-17T00:46:33.958Z,8.65
2023-05-17T00:49:01.224Z,9.32
2023-05-17T00:51:28.753Z,9.25
2023-05-17T00:53:55.962Z,9.07
2023-05-17T00:56:24.137Z,9.38
2023-05-17T00:58:51.301Z,9.00
2023-05-17T01:01:18.339Z,8.68
2023-05-17T01:03:46.673Z,8.70
2023-05-17T01:06:14.509Z,8.80
2023-05-17T01:08:42.586Z,8.32
2023-05-17T01:11:14.595Z,9.65
2023-05-17T01:14:19.167Z,8.80
2023-05-17T01:16:57.650Z,9.13
2023-05-17T01:19:50.819Z,8.13
2023-05-17T01:22:44.320Z,9.10
2023-05-17T01:25:24.678Z,8.43
2023-05-17T01:27:54.651Z,8.45
2023-05-17T01:30:26.027Z,8.23
2023-05-17T01:33:01.112Z,6.68
2023-05-17T01:35:28.522Z,7.25
2023-05-17T01:37:55.939Z,7.95
2023-05-17T01:40:24.484Z,7.00
2023-05-17T01:42:57.558Z,7.05
2023-05-17T01:45:54.000Z,6.88
2023-05-17T01:48:28.991Z,7.43
2023-05-17T01:51:00.703Z,7.03
2023-05-17T01:53:40.261Z,7.25
2023-05-17T01:56:15.134Z,6.85
2023-05-17T01:58:48.645Z,7.05
2023-05-17T02:01:18.902Z,6.80
2023-05-17T02:03:53.326Z,6.90
2023-05-17T02:06:20.355Z,6.13
2023-05-17T02:08:47.580Z,6.25
2023-05-17T02:11:14.648Z,5.78
2023-05-17T02:13:41.891Z,5.00
2023-05-17T02:16:09.062Z,4.95
2023-05-17T02:18:37.954Z,4.90
2023-05-17T02:21:08.805Z,5.60
2023-05-17T02:23:38.272Z,5.22
2023-05-17T02:26:11.254Z,5.05
2023-05-17T02:28:38.349Z,5.60
2023-05-17T02:31:07.771Z,5.50
2023-05-17T02:33:35.543Z,4.93
2023-05-17T02:36:02.613Z,5.47
2023-05-17T02:38:29.811Z,5.35
2023-05-17T02:40:56.839Z,5.40
2023-05-17T02:43:30.236Z,5.47
2023-05-17T02:45:59.923Z,4.50
2023-05-17T02:48:27.014Z,4.75
2023-05-17T02:50:54.085Z,4.35
2023-05-17T02:53:21.476Z,3.85
2023-05-17T02:55:48.567Z,3.88
2023-05-17T02:58:15.781Z,4.10
2023-05-17T03:00:46.650Z,4.03
2023-05-17T03:03:15.539Z,3.90
2023-05-17T03:05:42.669Z,4.15
2023-05-17T03:08:10.255Z,4.43
2023-05-17T03:10:37.205Z,3.83
2023-05-17T03:13:04.880Z,3.97
2023-05-17T03:15:36.161Z,4.22
2023-05-17T03:18:04.579Z,4.90
2023-05-17T03:20:31.680Z,3.92
2023-05-17T03:22:58.693Z,5.28
2023-05-17T03:25:25.963Z,3.83
2023-05-17T03:27:53.118Z,4.53
2023-05-17T03:30:21.119Z,4.80
2023-05-17T03:32:48.430Z,4.25
2023-05-17T03:35:24.832Z,3.97
2023-05-17T03:37:55.381Z,4.70
2023-05-17T03:40:26.705Z,4.90
2023-05-17T03:42:54.771Z,4.85
2023-05-17T03:45:24.718Z,4.95
2023-05-17T03:47:52.012Z,5.43
2023-05-17T03:50:19.672Z,5.18
2023-05-17T03:52:49.797Z,4.68
2023-05-17T03:55:17.000Z,6.15
2023-05-17T03:57:44.342Z,5.70
2023-05-17T04:00:12.538Z,5.15
2023-05-17T04:02:42.178Z,4.90
2023-05-17T04:05:10.967Z,5.35
2023-05-17T04:07:38.007Z,6.05
2023-05-17T04:10:06.281Z,4.88
2023-05-17T04:12:34.411Z,5.25
2023-05-17T04:15:02.000Z,4.40
2023-05-17T04:17:29.556Z,4.20
2023-05-17T04:19:56.979Z,3.70
2023-05-17T04:22:24.489Z,3.67
2023-05-17T04:24:53.099Z,4.05
2023-05-17T04:27:22.469Z,3.92
2023-05-17T04:29:49.603Z,3.33
2023-05-17T04:32:18.194Z,4.38
2023-05-17T04:34:45.464Z,3.67
2023-05-17T04:37:13.191Z,3.20
2023-05-17T04:39:40.989Z,3.45
2023-05-17T04:42:09.296Z,3.65
2023-05-17T04:44:40.702Z,3.58
2023-05-17T04:47:09.237Z,3.40
2023-05-17T04:49:37.558Z,3.35
2023-05-17T04:52:06.284Z,3.75
2023-05-17T04:54:34.970Z,2.97
2023-05-17T04:57:02.055Z,3.35
2023-05-17T04:59:49.039Z,4.20
2023-05-17T05:02:16.587Z,3.00
2023-05-17T05:04:43.875Z,3.20
2023-05-17T05:07:12.950Z,3.22
2023-05-17T05:09:40.581Z,2.80
2023-05-17T05:12:10.510Z,3.30
2023-05-17T05:14:38.260Z,4.22
2023-05-17T05:17:09.702Z,4.63
2023-05-17T05:19:38.392Z,2.13
2023-05-17T05:22:19.022Z,2.75
2023-05-17T05:24:46.464Z,2.53
2023-05-17T05:27:14.033Z,2.30
2023-05-17T05:29:42.768Z,3.58
2023-05-17T05:32:11.566Z,2.42
2023-05-17T05:34:44.187Z,2.25
2023-05-17T05:37:11.376Z,2.50
2023-05-17T05:39:38.655Z,2.50
2023-05-17T05:42:06.210Z,1.92
2023-05-17T05:44:33.240Z,2.40
2023-05-17T05:47:00.692Z,2.20
2023-05-17T05:49:27.824Z,1.52
2023-05-17T05:51:55.470Z,1.92
2023-05-17T05:54:23.094Z,2.60
2023-05-17T05:56:52.477Z,2.22
2023-05-17T05:59:20.959Z,2.30
2023-05-17T06:01:48.740Z,2.22
2023-05-17T06:04:16.133Z,2.22
2023-05-17T06:06:43.277Z,2.22
2023-05-17T06:09:13.866Z,2.22
2023-05-17T06:11:40.876Z,1.83
2023-05-17T06:14:08.491Z,2.22
2023-05-17T06:16:35.523Z,1.92
2023-05-17T06:19:02.653Z,2.10
2023-05-17T06:21:30.296Z,2.88
2023-05-17T06:23:59.045Z,2.75
2023-05-17T06:26:26.217Z,2.30
2023-05-17T06:28:53.432Z,2.13
2023-05-17T06:31:21.223Z,2.25
2023-05-17T06:33:48.296Z,1.65
2023-05-17T06:36:15.532Z,2.17
2023-05-17T06:38:42.573Z,1.90
2023-05-17T06:41:09.635Z,1.90
2023-05-17T06:43:37.760Z,2.33
2023-05-17T06:46:04.945Z,1.85
2023-05-17T06:48:32.144Z,2.67
2023-05-17T06:50:59.282Z,2.28
2023-05-17T06:53:27.377Z,1.90
2023-05-17T06:55:54.484Z,1.80
2023-05-17T06:58:21.811Z,2.35
2023-05-17T07:00:48.774Z,2.13
2023-05-17T07:03:16.069Z,1.98
2023-05-17T07:05:43.205Z,2.55
2023-05-17T07:08:10.247Z,2.13
2023-05-17T07:10:37.313Z,2.00
2023-05-17T07:13:04.458Z,2.45
2023-05-17T07:15:31.883Z,2.15
2023-05-17T07:17:59.575Z,1.98
2023-05-17T07:20:26.874Z,2.13
2023-05-17T07:22:53.851Z,2.10
2023-05-17T07:25:21.707Z,2.10
2023-05-17T07:27:49.074Z,1.83
2023-05-17T07:30:16.247Z,2.10
2023-05-17T07:32:43.319Z,3.10
2023-05-17T07:35:10.532Z,1.88
2023-05-17T07:37:37.467Z,2.60
2023-05-17T07:40:05.831Z,2.10
2023-05-17T07:42:33.522Z,2.20
2023-05-17T07:45:00.529Z,2.58
2023-05-17T07:47:27.487Z,2.55
2023-05-17T07:49:55.159Z,1.95
2023-05-17T07:52:22.194Z,2.30
2023-05-17T07:54:49.138Z,2.20
2023-05-17T07:57:16.148Z,2.47
2023-05-17T07:59:43.165Z,3.05
2023-05-17T08:02:10.223Z,2.22
2023-05-17T08:04:37.372Z,2.30
2023-05-17T08:07:05.572Z,4.03
2023-05-17T08:09:32.479Z,2.38
2023-05-17T08:11:59.527Z,2.35
2023-05-17T08:14:27.141Z,2.83
2023-05-17T08:16:54.025Z,1.98
2023-05-17T08:19:21.170Z,2.15
2023-05-17T08:21:49.348Z,2.72
2023-05-17T08:24:17.841Z,2.85
2023-05-17T08:26:45.048Z,2.53
2023-05-17T08:29:12.172Z,2.28
2023-05-17T08:31:39.257Z,2.10
2023-05-17T08:34:07.030Z,2.05
2023-05-17T08:36:34.547Z,1.77
2023-05-17T08:39:01.642Z,2.28
2023-05-17T08:41:30.816Z,2.17
2023-05-17T08:43:59.220Z,2.03
2023-05-17T08:46:27.037Z,1.90
2023-05-17T08:49:00.189Z,1.70
2023-05-17T08:51:27.895Z,1.97
2023-05-17T08:53:58.376Z,1.50
2023-05-17T08:56:28.997Z,1.55
2023-05-17T08:58:57.924Z,1.95
2023-05-17T09:01:26.881Z,1.52
2023-05-17T09:03:55.329Z,2.30
2023-05-17T09:06:23.396Z,1.77
2023-05-17T09:08:53.213Z,1.67
2023-05-17T09:11:31.383Z,1.80
2023-05-17T09:14:00.002Z,2.03
2023-05-17T09:16:33.661Z,1.55
2023-05-17T09:19:01.576Z,2.10
2023-05-17T09:21:31.150Z,3.00
2023-05-17T09:24:07.090Z,2.90
2023-05-17T09:26:46.027Z,2.70
2023-05-17T09:29:17.125Z,2.88
2023-05-17T09:31:44.847Z,2.70
2023-05-17T09:34:12.251Z,2.20
2023-05-17T09:36:44.833Z,2.33
2023-05-17T09:39:13.875Z,2.65
2023-05-17T09:41:51.351Z,2.60
2023-05-17T09:44:18.421Z,2.38
2023-05-17T09:46:47.545Z,2.20
2023-05-17T09:49:16.195Z,2.33
2023-05-17T09:51:45.128Z,2.42
2023-05-17T09:54:12.768Z,2.72
2023-05-17T09:56:40.387Z,2.60
2023-05-17T09:59:15.191Z,4.00
2023-05-17T10:01:45.433Z,1.88
2023-05-17T10:04:14.255Z,2.75
2023-05-17T10:09:15.923Z,2.35
2023-05-17T10:11:47.306Z,2.53
2023-05-17T10:14:23.333Z,2.22
2023-05-17T10:16:52.291Z,2.22
2023-05-17T10:19:21.499Z,4.18
2023-05-17T10:21:51.246Z,2.85
2023-05-17T10:24:20.440Z,2.08
2023-05-17T10:26:52.176Z,1.90
2023-05-17T10:29:22.020Z,2.53
2023-05-17T10:31:53.029Z,1.90
2023-05-17T10:34:20.863Z,1.90
2023-05-17T10:36:50.299Z,2.13
2023-05-17T10:39:18.685Z,2.45
2023-05-17T10:41:49.742Z,1.92
2023-05-17T10:44:18.901Z,1.85
2023-05-17T10:46:56.635Z,1.95
2023-05-17T10:49:32.542Z,2.05
2023-05-17T10:52:23.629Z,2.10
2023-05-17T10:54:51.149Z,1.83
2023-05-17T10:57:49.911Z,3.00
2023-05-17T11:00:22.230Z,1.92
2023-05-17T11:02:50.931Z,1.90
2023-05-17T11:05:28.361Z,2.28
2023-05-17T11:08:18.253Z,1.85
2023-05-17T11:11:10.485Z,1.67
2023-05-17T11:13:54.419Z,1.88
2023-05-17T11:16:24.373Z,2.00
2023-05-17T11:18:53.549Z,2.00
2023-05-17T11:21:22.687Z,2.10
2023-05-17T11:23:56.738Z,1.75
2023-05-17T11:26:27.969Z,2.00
2023-05-17T11:29:05.488Z,2.08
2023-05-17T11:31:34.988Z,2.38
2023-05-17T11:34:05.907Z,2.83
2023-05-17T11:36:48.542Z,2.28
2023-05-17T11:39:21.801Z,1.90
2023-05-17T11:41:51.927Z,2.05
2023-05-17T11:44:29.636Z,1.85
2023-05-17T11:47:10.875Z,1.85
2023-05-17T11:49:39.427Z,2.03
2023-05-17T11:52:08.203Z,2.00
2023-05-17T11:54:35.649Z,1.80
2023-05-17T11:57:04.109Z,2.03
2023-05-17T11:59:38.644Z,1.70
2023-05-17T12:02:05.953Z,2.60
2023-05-17T12:04:37.647Z,2.10
2023-05-17T12:07:05.600Z,2.70
2023-05-17T12:09:32.648Z,2.00
2023-05-17T12:12:04.255Z,2.17
2023-05-17T12:14:31.445Z,2.15
2023-05-17T12:17:00.938Z,1.75
2023-05-17T12:19:30.114Z,2.38
2023-05-17T12:22:12.871Z,1.88
2023-05-17T12:24:43.833Z,2.10
2023-05-17T12:27:11.520Z,2.25
2023-05-17T12:29:39.495Z,2.22
2023-05-17T12:32:08.913Z,1.75
2023-05-17T12:34:42.356Z,2.03
2023-05-17T12:37:13.355Z,2.17
2023-05-17T12:39:41.466Z,2.28
2023-05-17T12:42:09.832Z,2.10
2023-05-17T12:44:37.029Z,2.17
2023-05-17T12:47:04.214Z,2.60
2023-05-17T12:49:34.619Z,1.70
2023-05-17T12:52:05.822Z,1.60
2023-05-17T12:54:33.575Z,1.77
2023-05-17T12:57:12.861Z,1.40
2023-05-17T12:59:50.318Z,1.73
2023-05-17T13:02:17.792Z,1.95
2023-05-17T13:04:45.098Z,1.50
2023-05-17T13:07:12.675Z,1.80
2023-05-17T13:09:48.247Z,1.80
2023-05-17T13:12:24.052Z,2.05
2023-05-17T13:14:53.299Z,2.95
2023-05-17T13:17:34.771Z,2.00
2023-05-17T13:20:02.476Z,1.77
2023-05-17T13:22:29.489Z,2.30
2023-05-17T13:24:56.789Z,1.92
2023-05-17T13:27:24.048Z,2.33
2023-05-17T13:29:51.145Z,1.95
2023-05-17T13:32:19.254Z,2.10
2023-05-17T13:34:46.373Z,1.90
2023-05-17T13:37:13.423Z,1.70
2023-05-17T13:39:42.259Z,1.75
2023-05-17T13:42:11.075Z,2.17
2023-05-17T13:44:38.660Z,2.03
2023-05-17T13:47:06.391Z,1.90
2023-05-17T13:49:37.417Z,2.05
2023-05-17T13:52:08.678Z,1.77
2023-05-17T13:54:36.793Z,2.28
2023-05-17T13:57:04.533Z,2.00
2023-05-17T13:59:32.339Z,2.05
2023-05-17T14:01:59.556Z,2.13
2023-05-17T14:04:26.569Z,1.90
2023-05-17T14:06:55.214Z,2.03
2023-05-17T14:09:22.942Z,2.35
2023-05-17T14:11:50.240Z,2.35
2023-05-17T14:14:17.255Z,2.08
2023-05-17T14:16:44.296Z,2.17
2023-05-17T14:19:11.448Z,1.90
2023-05-17T14:21:38.458Z,1.90
2023-05-17T14:24:05.926Z,1.55
2023-05-17T14:26:32.989Z,1.92
2023-05-17T14:29:00.126Z,2.25
2023-05-17T14:31:29.960Z,2.08
2023-05-17T14:33:57.678Z,2.30
2023-05-17T14:36:24.809Z,1.85
2023-05-17T14:38:52.066Z,2.20
2023-05-17T14:41:19.150Z,1.75
2023-05-17T14:43:46.307Z,1.77
2023-05-17T14:46:14.764Z,2.03
2023-05-17T14:48:42.105Z,1.95
2023-05-17T14:51:09.383Z,1.73
2023-05-17T14:53:36.828Z,2.00
2023-05-17T14:56:04.006Z,2.55
2023-05-17T14:58:31.002Z,1.75
2023-05-17T15:01:05.270Z,1.80
2023-05-17T15:03:36.277Z,1.80
2023-05-17T15:06:10.089Z,2.17
2023-05-17T15:08:39.503Z,1.80
2023-05-17T15:11:10.867Z,2.08
2023-05-17T15:13:38.332Z,2.15
2023-05-17T15:16:05.787Z,2.10
2023-05-17T15:18:33.488Z,2.72
2023-05-17T15:21:05.649Z,2.17
2023-05-17T15:23:32.770Z,2.85
2023-05-17T15:25:59.963Z,3.00
2023-05-17T15:28:27.046Z,2.20
2023-05-17T15:31:06.614Z,2.47
2023-05-17T15:33:33.857Z,3.42
2023-05-17T15:36:00.865Z,2.67
2023-05-17T15:38:28.013Z,3.03
2023-05-17T15:41:16.141Z,3.58
2023-05-17T15:43:43.688Z,3.63
2023-05-17T15:46:11.787Z,3.30
2023-05-17T15:48:38.983Z,2.92
2023-05-17T15:51:06.744Z,2.90
2023-05-17T15:53:34.725Z,2.85
2023-05-17T15:56:01.744Z,3.05
2023-05-17T15:58:28.857Z,2.70
2023-05-17T16:00:56.015Z,3.20
2023-05-17T16:03:22.999Z,3.38
2023-05-17T16:05:50.235Z,3.13
2023-05-17T16:08:17.407Z,2.83
2023-05-17T16:10:44.462Z,2.58
2023-05-17T16:13:11.606Z,2.75
2023-05-17T16:15:38.726Z,3.00
2023-05-17T16:18:06.635Z,2.72
2023-05-17T16:20:34.089Z,2.60
2023-05-17T16:23:01.278Z,2.53
2023-05-17T16:25:28.794Z,2.30
2023-05-17T16:27:56.216Z,2.22
2023-05-17T16:30:23.447Z,2.67
2023-05-17T16:32:50.687Z,2.35
2023-05-17T16:35:19.987Z,2.70
2023-05-17T16:37:59.232Z,2.58
2023-05-17T16:40:29.052Z,3.42
2023-05-17T16:42:56.457Z,2.92
2023-05-17T16:45:23.491Z,2.88
2023-05-17T16:47:50.665Z,3.22
2023-05-17T16:50:21.163Z,2.60
2023-05-17T16:52:48.215Z,2.67
2023-05-17T16:55:18.846Z,3.10
2023-05-17T16:57:45.888Z,3.38
2023-05-17T17:00:13.507Z,2.40
2023-05-17T17:02:40.679Z,2.67
2023-05-17T17:05:08.240Z,3.22
2023-05-17T17:07:39.562Z,2.67
2023-05-17T17:10:10.345Z,4.68
2023-05-17T17:12:37.478Z,2.83
2023-05-17T17:15:07.532Z,2.65
2023-05-17T17:17:36.315Z,2.58
2023-05-17T17:20:09.221Z,2.30
2023-05-17T17:22:36.610Z,3.00
2023-05-17T17:25:04.460Z,2.42
2023-05-17T17:27:32.011Z,2.47
2023-05-17T17:29:59.200Z,2.63
2023-05-17T17:32:26.389Z,2.60
2023-05-17T17:34:53.568Z,2.05
2023-05-17T17:37:20.874Z,2.28
2023-05-17T17:39:47.926Z,2.10
2023-05-17T17:42:15.328Z,2.88
2023-05-17T17:44:42.389Z,2.53
2023-05-17T17:47:09.527Z,2.60
2023-05-17T17:49:42.165Z,2.28
2023-05-17T17:52:16.057Z,2.53
2023-05-17T17:54:44.695Z,2.47
2023-05-17T17:57:13.289Z,1.90
2023-05-17T17:59:40.564Z,2.88
2023-05-17T18:02:08.006Z,2.97
2023-05-17T18:04:35.083Z,4.05
2023-05-17T18:07:02.741Z,2.63
2023-05-17T18:09:30.280Z,2.17
2023-05-17T18:11:57.341Z,3.00
2023-05-17T18:14:24.393Z,1.70
2023-05-17T18:16:51.544Z,2.40
2023-05-17T18:19:18.978Z,2.25
2023-05-17T18:21:46.964Z,2.50
2023-05-17T18:24:14.072Z,2.50
2023-05-17T18:26:41.372Z,2.42
2023-05-17T18:29:08.462Z,2.40
2023-05-17T18:31:36.333Z,3.25
2023-05-17T18:34:03.370Z,2.65
2023-05-17T18:36:30.387Z,2.53
2023-05-17T18:38:59.285Z,2.97
2023-05-17T18:41:26.890Z,2.83
2023-05-17T18:43:54.017Z,3.28
2023-05-17T18:46:21.616Z,3.38
2023-05-17T18:48:48.897Z,2.40
2023-05-17T18:51:15.940Z,2.78
2023-05-17T18:53:43.003Z,2.47
2023-05-17T18:56:10.025Z,2.50
2023-05-17T18:58:37.188Z,2.63
2023-05-17T19:01:04.476Z,2.20
2023-05-17T19:03:32.112Z,3.47
2023-05-17T19:05:59.278Z,2.50
2023-05-17T19:08:26.730Z,2.45
2023-05-17T19:10:54.055Z,2.15
2023-05-17T19:13:21.116Z,2.22
2023-05-17T19:15:48.978Z,2.83
2023-05-17T19:18:16.107Z,3.35
2023-05-17T19:20:43.248Z,2.38
2023-05-17T19:23:10.479Z,2.40
2023-05-17T19:25:37.645Z,2.17
2023-05-17T19:28:05.149Z,2.58
2023-05-17T19:30:33.081Z,3.03
2023-05-17T19:33:00.482Z,3.00
2023-05-17T19:35:28.049Z,3.20
2023-05-17T19:37:57.489Z,2.92
2023-05-17T19:40:24.921Z,2.83
2023-05-17T19:42:52.482Z,2.92
2023-05-17T19:45:19.856Z,3.33
2023-05-17T19:47:50.404Z,2.78
2023-05-17T19:50:17.565Z,2.58
2023-05-17T19:52:44.576Z,2.33
2023-05-17T19:55:13.841Z,2.97
2023-05-17T19:57:41.015Z,2.40
2023-05-17T20:00:09.212Z,2.90
2023-05-17T20:02:36.465Z,2.75
2023-05-17T20:05:03.932Z,2.17
2023-05-17T20:07:31.584Z,3.15
2023-05-17T20:09:58.884Z,3.08
2023-05-17T20:12:26.718Z,3.22
2023-05-17T20:14:54.004Z,2.70
2023-05-17T20:17:21.782Z,3.42
2023-05-17T20:19:49.034Z,3.05
2023-05-17T20:22:17.161Z,3.33
2023-05-17T20:24:45.310Z,2.92
2023-05-17T20:27:16.626Z,3.35
2023-05-17T20:29:49.240Z,2.80
2023-05-17T20:32:17.096Z,3.17
2023-05-17T20:34:46.871Z,3.30
2023-05-17T20:37:14.895Z,3.85
2023-05-17T20:39:42.356Z,4.22
2023-05-17T20:42:09.936Z,3.67
2023-05-17T20:44:36.965Z,3.47
2023-05-17T20:47:06.022Z,3.78
2023-05-17T20:49:33.131Z,3.85
2023-05-17T20:52:03.594Z,3.65
2023-05-17T20:54:30.873Z,5.45
2023-05-17T20:56:58.832Z,4.55
2023-05-17T20:59:26.665Z,3.92
2023-05-17T21:01:54.003Z,3.95
2023-05-17T21:04:21.379Z,3.50
2023-05-17T21:06:48.658Z,3.42
2023-05-17T21:09:15.959Z,3.85
2023-05-17T21:11:44.216Z,3.80
2023-05-17T21:14:23.364Z,4.45
2023-05-17T21:16:50.478Z,4.32
2023-05-17T21:19:17.623Z,3.10
2023-05-17T21:21:44.837Z,3.90
2023-05-17T21:24:11.945Z,3.75
2023-05-17T21:26:40.869Z,4.43
2023-05-17T21:29:12.910Z,3.47
2023-05-17T21:31:43.384Z,4.28
2023-05-17T21:34:10.659Z,4.03
2023-05-17T21:36:37.836Z,3.80
2023-05-17T21:39:04.900Z,4.13
2023-05-17T21:41:32.209Z,4.05
2023-05-17T21:43:59.448Z,3.83
2023-05-17T21:46:26.731Z,3.85
2023-05-17T21:48:53.883Z,3.72
2023-05-17T21:51:22.283Z,4.30
2023-05-17T21:53:50.711Z,3.75
2023-05-17T21:56:17.909Z,3.60
2023-05-17T21:58:48.172Z,3.17
2023-05-17T22:01:15.360Z,3.58
2023-05-17T22:03:44.767Z,3.67
2023-05-17T22:06:12.027Z,3.38
2023-05-17T22:08:42.534Z,3.45
2023-05-17T22:11:11.144Z,3.40
2023-05-17T22:13:39.257Z,3.28
2023-05-17T22:16:06.795Z,3.38
2023-05-17T22:18:38.420Z,3.58
2023-05-17T22:21:05.696Z,4.00
2023-05-17T22:23:32.631Z,3.22
2023-05-17T22:26:00.804Z,2.78
2023-05-17T22:28:28.845Z,4.07
2023-05-17T22:30:56.222Z,4.50
2023-05-17T22:33:23.695Z,3.53
2023-05-17T22:35:53.655Z,3.28
2023-05-17T22:38:24.547Z,2.92
2023-05-17T22:40:52.101Z,4.25
2023-05-17T22:43:21.638Z,3.72
2023-05-17T22:45:53.713Z,4.25
2023-05-17T22:48:22.164Z,3.70
2023-05-17T22:50:50.713Z,3.38
2023-05-17T22:53:19.601Z,3.45
2023-05-17T22:55:49.337Z,3.42
2023-05-17T22:58:16.415Z,3.08
2023-05-17T23:00:44.703Z,3.20
2023-05-17T23:03:12.371Z,3.78
2023-05-17T23:05:39.677Z,3.67
2023-05-17T23:08:08.098Z,3.90
2023-05-17T23:10:35.144Z,3.50
2023-05-17T23:13:02.436Z,3.75
2023-05-17T23:15:29.830Z,3.50
2023-05-17T23:17:59.765Z,3.65
2023-05-17T23:20:26.943Z,4.32
2023-05-17T23:22:54.005Z,3.95
2023-05-17T23:25:21.471Z,4.32
2023-05-17T23:27:51.044Z,4.40
2023-05-17T23:30:18.237Z,4.28
2023-05-17T23:32:47.656Z,3.67
2023-05-17T23:35:14.854Z,3.97
2023-05-17T23:37:42.341Z,3.75
2023-05-17T23:40:09.959Z,4.25
2023-05-17T23:42:37.899Z,4.03
2023-05-17T23:45:05.448Z,4.30
2023-05-17T23:47:33.777Z,4.53
2023-05-17T23:50:03.115Z,5.90
2023-05-17T23:52:32.839Z,4.75
2023-05-17T23:55:00.214Z,4.00
2023-05-17T23:57:27.507Z,3.88
2023-05-17T23:59:54.540Z,5.35
